DAUK

Touggourt Sidi Madhi Airport

Touggourt, Algeria
METAR DAUK 231400Z 01006KT CAVOK 33/08 Q1016
Observed Flight Rules
May-23 @ 14:00 UTC (an hour ago) Visual Flight Rules
Wind Visibility Clouds
10° at 6 knots 10,000+ meters
  • Clear skies
Temperatures Readings
Current 33°C / 91°F
Dewpoint 8°C / 46°F
Humidity 21%
Altimeter 30" Hg
Pressure 1016 hPa
Elevation 85
METAR DAUK 231400Z 01006KT CAVOK 33/08 Q1016
Observed Flight Rules
May-23 @ 14:00 UTC
(an hour ago)
VFR
Wind Visibility
10° at 6 knots 10,000+ meters
Clouds
  • Clear skies
Temperature Dewpoint
33°C / 91°F 8°C / 46°F
Humidity Altimeter Pressure
21% 30" Hg 1016 hPa